Brashear, Texas
Current Conditions -  °F | °C
As of 6:15 AM on Thursday 29 Jan 2015 (Local Time) from KSLR Reporting Station
Clear Clear  
Wind Chill: 13°   Ceiling: Unl
Heat Index: 13°   Visibility: 10mi
Dew Point:   Wind: 10mph
Humidity: 68%   Direction: 240°WSW
Pressure: 30.13"   Gusts: NA
Location:  33.12°N, 95.73°W
Report Text: KSLR 291215Z AUTO 24009KT 10SM CLR 13/07 A3013 RMK AO2 T01290072
Loading
Personal Weather Stations






























Interactive Weather Map New forecast layout! Learn more

10-Day Weather Forecast

Advertisements
Track Severe Weather on mobile